createdAt,value
2022-09-23T00:00:01.617Z,99.99
2022-09-23T00:01:01.833Z,99.99
2022-09-23T00:02:01.938Z,99.99
2022-09-23T00:03:02.113Z,99.99
2022-09-23T00:04:02.217Z,99.99
2022-09-23T00:05:02.345Z,99.99
2022-09-23T00:06:02.483Z,99.99
2022-09-23T00:07:02.631Z,99.99
2022-09-23T00:08:02.757Z,99.99
2022-09-23T00:09:02.937Z,99.99
2022-09-23T00:10:02.983Z,99.99
2022-09-23T00:11:03.143Z,99.99
2022-09-23T00:12:06.927Z,99.99
2022-09-23T00:13:04.435Z,99.99
2022-09-23T00:14:03.555Z,99.99
2022-09-23T00:15:03.673Z,99.99
2022-09-23T00:16:03.786Z,99.99
2022-09-23T00:17:03.952Z,99.99
2022-09-23T00:18:04.014Z,99.99
2022-09-23T00:19:04.168Z,99.99
2022-09-23T00:20:04.292Z,99.99
2022-09-23T00:21:04.412Z,99.99
2022-09-23T00:22:04.562Z,99.99
2022-09-23T00:23:04.696Z,99.99
2022-09-23T00:24:04.890Z,99.99
2022-09-23T00:25:04.972Z,99.99
2022-09-23T00:26:05.083Z,99.99
2022-09-23T00:27:05.215Z,99.99
2022-09-23T00:28:05.313Z,99.99
2022-09-23T00:29:05.453Z,99.99
2022-09-23T00:30:05.594Z,99.99
2022-09-23T00:31:05.801Z,99.99
2022-09-23T00:32:05.884Z,99.99
2022-09-23T00:33:06.008Z,99.99
2022-09-23T00:34:06.203Z,99.99
2022-09-23T00:35:06.291Z,99.99
2022-09-23T00:36:06.422Z,99.99
2022-09-23T00:37:06.573Z,99.99
2022-09-23T00:38:06.713Z,99.99
2022-09-23T00:39:06.968Z,99.99
2022-09-23T00:40:06.973Z,99.99
2022-09-23T00:41:07.053Z,99.99
2022-09-23T00:42:07.203Z,99.99
2022-09-23T00:43:07.324Z,99.99
2022-09-23T00:44:07.460Z,99.99
2022-09-23T00:45:07.599Z,99.99
2022-09-23T00:46:08.082Z,99.99
2022-09-23T00:47:07.841Z,99.99
2022-09-23T00:48:07.948Z,99.99
2022-09-23T00:49:08.807Z,99.99
2022-09-23T00:50:08.221Z,99.99
2022-09-23T00:51:08.369Z,99.99
2022-09-23T00:52:08.468Z,99.99
2022-09-23T00:53:08.620Z,99.99
2022-09-23T00:54:08.789Z,99.99
2022-09-23T00:55:08.909Z,99.99
2022-09-23T00:56:09.029Z,99.99
2022-09-23T00:57:09.168Z,99.99
2022-09-23T00:58:09.310Z,99.99
2022-09-23T00:59:09.471Z,99.99
2022-09-23T01:00:09.585Z,99.99
2022-09-23T01:01:09.767Z,99.99
2022-09-23T01:02:09.936Z,99.99
2022-09-23T01:03:09.990Z,99.99
2022-09-23T01:04:10.141Z,99.99
2022-09-23T01:05:10.280Z,99.99
2022-09-23T01:06:10.426Z,99.99
2022-09-23T01:07:10.552Z,99.99
2022-09-23T01:08:10.660Z,99.99
2022-09-23T01:09:10.877Z,99.99
2022-09-23T01:10:10.899Z,99.99
2022-09-23T01:11:11.027Z,99.99
2022-09-23T01:12:11.159Z,99.99
2022-09-23T01:13:11.308Z,99.99
2022-09-23T01:14:11.442Z,99.99
2022-09-23T01:15:11.588Z,99.99
2022-09-23T01:16:11.751Z,99.99
2022-09-23T01:17:11.875Z,99.99
2022-09-23T01:18:11.988Z,99.99
2022-09-23T01:19:12.116Z,99.99
2022-09-23T01:20:12.267Z,99.99
2022-09-23T01:21:13.844Z,99.99
2022-09-23T01:22:12.556Z,99.99
2022-09-23T01:23:12.688Z,99.99
2022-09-23T01:24:12.845Z,99.99
2022-09-23T01:25:12.998Z,99.99
2022-09-23T01:26:13.088Z,99.99
2022-09-23T01:27:13.204Z,99.99
2022-09-23T01:28:13.330Z,99.99
2022-09-23T01:29:13.465Z,99.99
2022-09-23T01:30:13.546Z,99.99
2022-09-23T01:31:13.703Z,99.99
2022-09-23T01:32:13.837Z,99.99
2022-09-23T01:33:13.966Z,99.99
2022-09-23T01:34:14.093Z,99.99
2022-09-23T01:35:14.213Z,99.99
2022-09-23T01:36:14.338Z,99.99
2022-09-23T01:37:14.486Z,99.99
2022-09-23T01:38:14.625Z,99.99
2022-09-23T01:39:14.756Z,99.99
2022-09-23T01:40:14.884Z,99.99
2022-09-23T01:41:15.044Z,99.99
2022-09-23T01:42:16.634Z,99.99
2022-09-23T01:43:15.366Z,99.99
2022-09-23T01:44:15.445Z,99.99
2022-09-23T01:45:15.543Z,99.99
2022-09-23T01:46:15.786Z,99.99
2022-09-23T01:47:15.773Z,99.99
2022-09-23T01:48:15.923Z,99.99
2022-09-23T01:49:16.057Z,99.99
2022-09-23T01:50:16.170Z,99.99
2022-09-23T01:51:16.303Z,99.99
2022-09-23T01:52:16.423Z,99.99
2022-09-23T01:53:16.552Z,99.99
2022-09-23T01:54:16.711Z,99.99
2022-09-23T01:55:16.832Z,99.99
2022-09-23T01:56:16.970Z,99.99
2022-09-23T01:57:17.111Z,99.99
2022-09-23T01:58:17.233Z,99.99
2022-09-23T01:59:17.360Z,99.99
2022-09-23T02:00:17.471Z,99.99
2022-09-23T02:01:17.648Z,99.99
2022-09-23T02:02:17.742Z,99.99
2022-09-23T02:03:17.832Z,99.99
2022-09-23T02:04:17.992Z,99.99
2022-09-23T02:05:18.119Z,99.99
2022-09-23T02:06:18.246Z,99.99
2022-09-23T02:07:18.503Z,99.99
2022-09-23T02:08:18.520Z,99.99
2022-09-23T02:09:18.639Z,99.99
2022-09-23T02:10:18.762Z,99.99
2022-09-23T02:11:18.890Z,99.99
2022-09-23T02:12:19.014Z,99.99
2022-09-23T02:13:19.140Z,99.99
2022-09-23T02:14:19.261Z,99.99
2022-09-23T02:15:19.382Z,99.99
2022-09-23T02:16:19.526Z,99.99
2022-09-23T02:17:19.681Z,99.99
2022-09-23T02:18:19.819Z,99.99
2022-09-23T02:19:19.930Z,99.99
2022-09-23T02:20:20.061Z,99.99
2022-09-23T02:21:20.229Z,99.99
2022-09-23T02:22:20.291Z,99.99
2022-09-23T02:23:20.617Z,99.99
2022-09-23T02:24:20.570Z,99.99
2022-09-23T02:25:20.689Z,99.99
2022-09-23T02:26:20.801Z,99.99
2022-09-23T02:27:20.969Z,99.99
2022-09-23T02:28:21.033Z,99.99
2022-09-23T02:29:21.153Z,99.99
2022-09-23T02:30:21.281Z,99.99
2022-09-23T02:31:21.461Z,99.99
2022-09-23T02:32:21.639Z,99.99
2022-09-23T02:33:21.673Z,99.99
2022-09-23T02:34:21.779Z,99.99
2022-09-23T02:35:21.899Z,99.99
2022-09-23T02:36:22.088Z,99.99
2022-09-23T02:37:22.200Z,99.99
2022-09-23T02:38:22.298Z,99.99
2022-09-23T02:39:22.439Z,99.99
2022-09-23T02:40:22.646Z,99.99
2022-09-23T02:41:22.708Z,99.99
2022-09-23T02:42:22.844Z,99.99
2022-09-23T02:43:22.959Z,99.99
2022-09-23T02:44:23.068Z,99.99
2022-09-23T02:45:23.200Z,99.99
2022-09-23T02:46:23.365Z,99.99
2022-09-23T02:47:23.507Z,99.99
2022-09-23T02:48:23.637Z,99.99
2022-09-23T02:49:23.760Z,99.99
2022-09-23T02:50:23.876Z,99.99
2022-09-23T02:51:23.996Z,99.99
2022-09-23T02:52:24.118Z,99.99
2022-09-23T02:53:24.271Z,99.99
2022-09-23T02:54:24.386Z,99.99
2022-09-23T02:55:24.505Z,99.99
2022-09-23T02:56:24.626Z,99.99
2022-09-23T02:57:24.754Z,99.99
2022-09-23T02:58:24.886Z,99.99
2022-09-23T02:59:25.037Z,99.99
2022-09-23T03:00:26.625Z,99.99
2022-09-23T03:01:25.353Z,99.99
2022-09-23T03:02:25.552Z,99.99
2022-09-23T03:03:25.599Z,99.99
2022-09-23T03:04:25.757Z,99.99
2022-09-23T03:05:25.877Z,99.99
2022-09-23T03:06:25.995Z,99.99
2022-09-23T03:07:26.118Z,99.99
2022-09-23T03:08:26.255Z,99.99
2022-09-23T03:09:26.393Z,99.99
2022-09-23T03:10:26.523Z,99.99
2022-09-23T03:11:26.636Z,99.99
2022-09-23T03:12:26.753Z,99.99
2022-09-23T03:13:29.392Z,99.99
2022-09-23T03:14:27.043Z,99.99
2022-09-23T03:15:27.184Z,99.99
2022-09-23T03:16:27.357Z,99.99
2022-09-23T03:17:27.414Z,99.99
2022-09-23T03:18:27.536Z,99.99
2022-09-23T03:19:27.664Z,99.99
2022-09-23T03:20:27.795Z,99.99
2022-09-23T03:21:27.902Z,99.99
2022-09-23T03:22:28.047Z,99.99
2022-09-23T03:23:28.184Z,99.99
2022-09-23T03:24:28.303Z,99.99
2022-09-23T03:25:28.432Z,99.99
2022-09-23T03:26:28.553Z,99.99
2022-09-23T03:27:28.672Z,99.99
2022-09-23T03:28:28.796Z,99.99
2022-09-23T03:29:28.924Z,99.99
2022-09-23T03:30:29.071Z,99.99
2022-09-23T03:31:29.196Z,99.99
2022-09-23T03:32:29.312Z,99.99
2022-09-23T03:33:29.426Z,99.99
2022-09-23T03:34:29.631Z,99.99
2022-09-23T03:35:29.652Z,99.99
2022-09-23T03:36:29.773Z,99.99
2022-09-23T03:37:29.901Z,99.99
2022-09-23T03:38:30.026Z,99.99
2022-09-23T03:39:30.152Z,99.99
2022-09-23T03:40:30.351Z,99.99
2022-09-23T03:41:30.414Z,99.99
2022-09-23T03:42:30.537Z,99.99
2022-09-23T03:43:30.652Z,99.99
2022-09-23T03:44:30.802Z,99.99
2022-09-23T03:45:31.021Z,99.99
2022-09-23T03:46:31.088Z,99.99
2022-09-23T03:47:31.203Z,99.99
2022-09-23T03:48:31.335Z,99.99
2022-09-23T03:49:31.482Z,99.99
2022-09-23T03:50:31.610Z,99.99
2022-09-23T03:51:31.729Z,99.99
2022-09-23T03:52:31.851Z,99.99
2022-09-23T03:53:31.972Z,99.99
2022-09-23T03:54:32.089Z,99.99
2022-09-23T03:55:32.204Z,99.99
2022-09-23T03:56:32.321Z,99.99
2022-09-23T03:57:32.452Z,99.99
2022-09-23T03:58:32.590Z,99.99
2022-09-23T03:59:32.670Z,99.99
2022-09-23T04:00:32.858Z,99.99
2022-09-23T04:01:32.900Z,99.99
2022-09-23T04:02:33.079Z,99.99
2022-09-23T04:03:33.201Z,99.99
2022-09-23T04:04:33.351Z,99.99
2022-09-23T04:05:33.470Z,99.99
2022-09-23T04:06:33.590Z,99.99
2022-09-23T04:07:33.708Z,99.99
2022-09-23T04:08:33.842Z,99.99
2022-09-23T04:09:33.946Z,99.99
2022-09-23T04:10:34.080Z,99.99
2022-09-23T04:11:34.200Z,99.99
2022-09-23T04:12:34.327Z,99.99
2022-09-23T04:13:34.478Z,99.99
2022-09-23T04:14:34.616Z,99.99
2022-09-23T04:15:34.774Z,99.99
2022-09-23T04:16:34.951Z,99.99
2022-09-23T04:17:35.056Z,99.99
2022-09-23T04:18:36.651Z,99.99
2022-09-23T04:19:35.309Z,99.99
2022-09-23T04:20:35.456Z,99.99
2022-09-23T04:21:35.564Z,99.99
2022-09-23T04:22:35.697Z,99.99
2022-09-23T04:23:35.821Z,99.99
2022-09-23T04:24:35.946Z,99.99
2022-09-23T04:25:36.096Z,99.99
2022-09-23T04:26:36.226Z,99.99
2022-09-23T04:27:37.896Z,99.99
2022-09-23T04:28:36.536Z,99.99
2022-09-23T04:29:36.668Z,99.99
2022-09-23T04:30:36.798Z,99.99
2022-09-23T04:31:37.027Z,99.99
2022-09-23T04:32:37.091Z,99.99
2022-09-23T04:33:37.207Z,99.99
2022-09-23T04:34:37.354Z,99.99
2022-09-23T04:35:40.186Z,99.99
2022-09-23T04:36:37.655Z,99.99
2022-09-23T04:37:37.775Z,99.99
2022-09-23T04:38:37.898Z,99.99
2022-09-23T04:39:38.025Z,99.99
2022-09-23T04:40:38.282Z,99.99
2022-09-23T04:41:38.307Z,99.99
2022-09-23T04:42:38.435Z,99.99
2022-09-23T04:43:38.557Z,99.99
2022-09-23T04:44:38.703Z,99.99
2022-09-23T04:45:38.844Z,99.99
2022-09-23T04:46:39.071Z,99.99
2022-09-23T04:47:39.094Z,99.99
2022-09-23T04:48:39.223Z,99.99
2022-09-23T04:49:39.336Z,99.99
2022-09-23T04:50:39.470Z,99.99
2022-09-23T04:51:39.622Z,99.99
2022-09-23T04:52:39.744Z,99.99
2022-09-23T04:53:39.879Z,99.99
2022-09-23T04:54:39.992Z,99.99
2022-09-23T04:55:40.102Z,99.99
2022-09-23T04:56:40.253Z,99.99
2022-09-23T04:57:40.340Z,99.99
2022-09-23T04:58:40.464Z,99.99
2022-09-23T04:59:40.583Z,99.99
2022-09-23T05:00:40.757Z,99.99
2022-09-23T05:01:41.025Z,99.99
2022-09-23T05:02:40.940Z,99.99
2022-09-23T05:03:41.074Z,99.99
2022-09-23T05:04:41.201Z,99.99
2022-09-23T05:05:41.322Z,99.99
2022-09-23T05:06:41.451Z,99.99
2022-09-23T05:07:41.592Z,99.99
2022-09-23T05:08:41.727Z,99.99
2022-09-23T05:09:41.842Z,99.99
2022-09-23T05:10:41.969Z,99.99
2022-09-23T05:11:42.113Z,99.99
2022-09-23T05:12:42.263Z,99.99
2022-09-23T05:13:42.403Z,99.99
2022-09-23T05:14:42.529Z,99.99
2022-09-23T05:15:42.653Z,99.99
2022-09-23T05:16:42.916Z,99.99
2022-09-23T05:17:42.902Z,99.99
2022-09-23T05:18:43.049Z,99.99
2022-09-23T05:19:43.180Z,99.99
2022-09-23T05:20:43.330Z,99.99
2022-09-23T05:21:43.470Z,99.99
2022-09-23T05:22:43.622Z,99.99
2022-09-23T05:23:43.749Z,99.99
2022-09-23T05:24:43.882Z,99.99
2022-09-23T05:25:44.060Z,99.99
2022-09-23T05:26:44.149Z,99.99
2022-09-23T05:27:44.271Z,99.99
2022-09-23T05:28:44.418Z,99.99
2022-09-23T05:29:44.559Z,99.99
2022-09-23T05:30:44.725Z,99.99
2022-09-23T05:31:44.895Z,99.99
2022-09-23T05:32:44.983Z,99.99
2022-09-23T05:33:45.069Z,99.99
2022-09-23T05:34:45.208Z,99.99
2022-09-23T05:35:45.366Z,99.99
2022-09-23T05:36:45.499Z,99.99
2022-09-23T05:37:45.648Z,99.99
2022-09-23T05:38:45.800Z,99.99
2022-09-23T05:39:45.928Z,99.99
2022-09-23T05:40:46.111Z,99.99
2022-09-23T05:41:46.189Z,99.99
2022-09-23T05:42:46.321Z,99.99
2022-09-23T05:43:46.449Z,99.99
2022-09-23T05:44:46.589Z,99.99
2022-09-23T05:45:46.756Z,99.99
2022-09-23T05:46:46.899Z,99.99
2022-09-23T05:47:46.989Z,99.99
2022-09-23T05:48:47.136Z,99.99
2022-09-23T05:49:59.738Z,99.99
2022-09-23T05:50:48.450Z,99.99
2022-09-23T05:51:47.580Z,99.99
2022-09-23T05:52:47.704Z,99.99
2022-09-23T05:53:47.834Z,99.99
2022-09-23T05:54:47.965Z,99.99
2022-09-23T05:55:48.166Z,99.99
2022-09-23T05:56:48.309Z,99.99
2022-09-23T05:57:48.457Z,99.99
2022-09-23T05:58:49.346Z,99.99
2022-09-23T05:59:48.724Z,99.99
2022-09-23T06:00:48.852Z,99.99
2022-09-23T06:01:51.069Z,99.99
2022-09-23T06:02:49.175Z,99.99
2022-09-23T06:03:49.280Z,99.99
2022-09-23T06:04:49.409Z,99.99
2022-09-23T06:05:49.567Z,99.99
2022-09-23T06:06:49.717Z,99.99
2022-09-23T06:07:49.874Z,99.99
2022-09-23T06:08:50.044Z,99.99
2022-09-23T06:09:50.181Z,99.99
2022-09-23T06:10:54.320Z,99.99
2022-09-23T06:11:50.438Z,99.99
2022-09-23T06:12:50.576Z,99.99
2022-09-23T06:13:50.683Z,99.99
2022-09-23T06:14:50.803Z,99.99
2022-09-23T06:15:50.979Z,99.99
2022-09-23T06:16:51.135Z,99.99
2022-09-23T06:17:51.284Z,99.99
2022-09-23T06:18:51.415Z,99.99
2022-09-23T06:19:51.550Z,99.99
2022-09-23T06:20:51.715Z,99.99
2022-09-23T06:21:51.898Z,99.99
2022-09-23T06:22:54.718Z,99.99
2022-09-23T06:23:55.241Z,99.99
2022-09-23T06:24:52.312Z,99.99
2022-09-23T06:25:52.453Z,99.99
2022-09-23T06:26:52.613Z,99.99
2022-09-23T06:27:52.743Z,99.99
2022-09-23T06:28:52.886Z,99.99
2022-09-23T06:29:53.038Z,99.99
2022-09-23T06:30:53.196Z,99.99
2022-09-23T06:31:53.370Z,99.99
2022-09-23T06:32:53.464Z,99.99
2022-09-23T06:34:03.931Z,99.99
2022-09-23T06:34:54.783Z,99.99
2022-09-23T06:35:59.390Z,99.99
2022-09-23T06:36:55.021Z,99.99
2022-09-23T06:37:54.161Z,99.99
2022-09-23T06:38:54.274Z,99.99
2022-09-23T06:39:55.808Z,99.99
2022-09-23T06:40:54.611Z,99.99
2022-09-23T06:41:54.631Z,99.99
2022-09-23T06:42:54.782Z,99.99
2022-09-23T06:43:54.930Z,99.99
2022-09-23T06:44:55.048Z,99.99
2022-09-23T06:45:55.178Z,99.99
2022-09-23T06:46:55.354Z,99.99
2022-09-23T06:47:55.471Z,99.99
2022-09-23T06:48:55.609Z,99.99
2022-09-23T06:49:55.770Z,99.99
2022-09-23T06:50:55.912Z,99.99
2022-09-23T06:51:56.054Z,99.99
2022-09-23T06:52:56.378Z,99.99
2022-09-23T06:53:56.322Z,99.99
2022-09-23T06:54:56.439Z,99.99
2022-09-23T06:55:56.559Z,99.86
2022-09-23T06:56:56.839Z,99.91
2022-09-23T06:57:56.775Z,99.30
2022-09-23T06:58:56.936Z,99.36
2022-09-23T06:59:57.020Z,98.74
2022-09-23T07:00:57.167Z,99.11
2022-09-23T07:01:57.402Z,99.01
2022-09-23T07:02:58.181Z,98.80
2022-09-23T07:03:57.554Z,98.49
2022-09-23T07:04:57.643Z,97.74
2022-09-23T07:05:57.740Z,97.42
2022-09-23T07:06:57.888Z,96.51
2022-09-23T07:07:58.001Z,96.46
2022-09-23T07:08:58.166Z,95.34
2022-09-23T07:09:58.239Z,96.15
2022-09-23T07:10:58.397Z,95.19
2022-09-23T07:11:58.524Z,94.98
2022-09-23T07:12:58.636Z,94.07
2022-09-23T07:13:58.778Z,93.66
2022-09-23T07:14:58.861Z,93.71
2022-09-23T07:15:59.073Z,93.62
2022-09-23T07:16:59.115Z,93.51
2022-09-23T07:17:59.228Z,93.51
2022-09-23T07:18:59.403Z,92.55
2022-09-23T07:19:59.478Z,92.55
2022-09-23T07:20:59.696Z,93.37
2022-09-23T07:21:59.757Z,91.74
2022-09-23T07:22:59.870Z,92.41
2022-09-23T07:24:00.073Z,91.79
2022-09-23T07:25:00.136Z,91.79
2022-09-23T07:26:00.277Z,90.67
2022-09-23T07:27:00.370Z,90.67
2022-09-23T07:28:00.529Z,90.32
2022-09-23T07:29:00.623Z,91.14
2022-09-23T07:30:00.717Z,90.42
2022-09-23T07:31:01.257Z,90.89
2022-09-23T07:32:12.279Z,90.28
2022-09-23T07:33:04.868Z,90.38
2022-09-23T07:34:02.333Z,90.69
2022-09-23T07:35:01.386Z,89.97
2022-09-23T07:36:01.559Z,89.32
2022-09-23T07:37:01.646Z,89.01
2022-09-23T07:38:01.790Z,89.53
2022-09-23T07:39:01.927Z,88.81
2022-09-23T07:40:02.059Z,88.16
2022-09-23T07:41:02.174Z,86.16
2022-09-23T07:42:02.306Z,87.14
2022-09-23T07:43:02.391Z,86.43
2022-09-23T07:44:02.543Z,87.24
2022-09-23T07:45:02.646Z,85.11
2022-09-23T07:46:02.851Z,85.37
2022-09-23T07:47:02.914Z,87.00
2022-09-23T07:48:04.474Z,84.15
2022-09-23T07:49:03.161Z,83.84
2022-09-23T07:50:03.288Z,84.05
2022-09-23T07:51:03.387Z,85.53
2022-09-23T07:52:03.502Z,83.70
2022-09-23T07:53:03.617Z,83.20
2022-09-23T07:54:03.736Z,84.78
2022-09-23T07:55:03.837Z,83.36
2022-09-23T07:56:03.988Z,82.24
2022-09-23T07:57:04.297Z,82.65
2022-09-23T07:58:04.276Z,81.53
2022-09-23T07:59:04.386Z,81.63
2022-09-23T08:00:04.523Z,82.54
2022-09-23T08:01:04.695Z,82.04
2022-09-23T08:02:04.858Z,81.53
2022-09-23T08:03:04.999Z,82.10
2022-09-23T08:04:05.024Z,80.37
2022-09-23T08:05:05.166Z,82.00
2022-09-23T08:06:05.320Z,83.12
2022-09-23T08:07:05.435Z,82.00
2022-09-23T08:08:05.544Z,82.47
2022-09-23T08:09:05.677Z,82.37
2022-09-23T08:10:05.777Z,80.44
2022-09-23T08:11:05.884Z,80.84
2022-09-23T08:12:06.034Z,80.64
2022-09-23T08:13:06.153Z,81.72
2022-09-23T08:14:06.382Z,81.41
2022-09-23T08:15:06.377Z,80.19
2022-09-23T08:16:06.577Z,80.36
2022-09-23T08:17:06.674Z,79.35
2022-09-23T08:18:06.863Z,80.97
2022-09-23T08:19:06.929Z,78.84
2022-09-23T08:20:07.076Z,78.84
2022-09-23T08:21:07.176Z,78.94
2022-09-23T08:22:07.316Z,78.84
2022-09-23T08:23:07.476Z,78.03
2022-09-23T08:24:07.603Z,79.25
2022-09-23T08:25:09.489Z,77.89
2022-09-23T08:26:15.710Z,78.50
2022-09-23T08:27:08.955Z,77.69
2022-09-23T08:28:08.127Z,78.50
2022-09-23T08:29:08.202Z,78.36
2022-09-23T08:30:08.386Z,78.16
2022-09-23T08:31:08.515Z,79.07
2022-09-23T08:32:08.589Z,78.63
2022-09-23T08:33:08.703Z,77.65
2022-09-23T08:34:08.944Z,78.06
2022-09-23T08:35:08.944Z,77.61
2022-09-23T08:36:09.084Z,77.86
2022-09-23T08:37:09.226Z,78.53
2022-09-23T08:38:09.370Z,77.51
2022-09-23T08:39:09.516Z,76.40
2022-09-23T08:40:09.734Z,77.11
2022-09-23T08:41:09.754Z,77.51
2022-09-23T08:42:09.903Z,77.28
2022-09-23T08:43:10.011Z,78.08
2022-09-23T08:44:10.176Z,76.67
2022-09-23T08:45:10.275Z,78.28
2022-09-23T08:46:10.421Z,78.15
2022-09-23T08:47:10.505Z,77.03
2022-09-23T08:48:12.994Z,76.32
2022-09-23T08:49:10.756Z,76.03
2022-09-23T08:50:11.012Z,76.03
2022-09-23T08:51:11.004Z,76.63
2022-09-23T08:52:11.164Z,77.03
2022-09-23T08:53:11.266Z,76.73
2022-09-23T08:54:11.425Z,76.19
2022-09-23T08:55:11.551Z,76.39
2022-09-23T08:56:11.684Z,75.38
2022-09-23T08:57:11.766Z,74.87
2022-09-23T08:58:25.027Z,74.98
2022-09-23T08:59:13.025Z,74.33
2022-09-23T09:00:12.172Z,74.74
2022-09-23T09:01:12.298Z,74.60
2022-09-23T09:02:12.537Z,73.69
2022-09-23T09:03:12.545Z,74.46
2022-09-23T09:04:12.861Z,75.17
2022-09-23T09:05:12.809Z,73.96
2022-09-23T09:06:12.907Z,72.75
2022-09-23T09:07:35.203Z,72.71
2022-09-23T09:08:14.153Z,72.31
2022-09-23T09:09:13.255Z,72.71
2022-09-23T09:10:13.408Z,73.28
2022-09-23T09:11:13.878Z,70.86
2022-09-23T09:12:13.634Z,71.97
2022-09-23T09:13:13.775Z,70.89
2022-09-23T09:14:13.956Z,72.17
2022-09-23T09:15:14.046Z,72.07
2022-09-23T09:16:14.233Z,70.73
2022-09-23T09:17:14.329Z,71.44
2022-09-23T09:18:14.487Z,71.60
2022-09-23T09:19:14.616Z,68.41
2022-09-23T09:20:14.707Z,68.91
2022-09-23T09:21:14.821Z,70.22
2022-09-23T09:22:14.976Z,69.52
2022-09-23T09:23:15.087Z,69.72
2022-09-23T09:24:15.249Z,69.38
2022-09-23T09:25:15.345Z,69.75
2022-09-23T09:26:15.525Z,68.65
2022-09-23T09:27:15.604Z,68.71
2022-09-23T09:28:15.759Z,68.21
2022-09-23T09:29:34.221Z,67.40
2022-09-23T09:30:17.037Z,67.68
2022-09-23T09:31:16.212Z,67.07
2022-09-23T09:32:16.286Z,67.14
2022-09-23T09:33:16.368Z,65.73
2022-09-23T09:34:16.529Z,67.34
2022-09-23T09:35:16.644Z,65.53
2022-09-23T09:36:16.776Z,64.72
2022-09-23T09:37:16.869Z,65.36
2022-09-23T09:38:17.017Z,64.82
2022-09-23T09:39:17.116Z,63.48
2022-09-23T09:40:17.592Z,63.65
2022-09-23T09:41:17.407Z,64.36
2022-09-23T09:42:17.519Z,64.19
2022-09-23T09:43:17.664Z,65.12
2022-09-23T09:44:17.819Z,64.79
2022-09-23T09:45:19.806Z,65.42
2022-09-23T09:46:18.133Z,65.30
2022-09-23T09:47:18.157Z,64.52
2022-09-23T09:48:18.258Z,64.99
2022-09-23T09:49:18.406Z,65.09
2022-09-23T09:50:18.619Z,64.56
2022-09-23T09:51:18.701Z,63.39
2022-09-23T09:52:18.845Z,64.02
2022-09-23T09:53:18.905Z,64.42
2022-09-23T09:54:19.014Z,65.50
2022-09-23T09:55:19.144Z,65.19
2022-09-23T09:56:19.233Z,64.86
2022-09-23T09:57:19.340Z,65.19
2022-09-23T09:58:19.490Z,63.92
2022-09-23T09:59:19.599Z,65.56
2022-09-23T10:00:19.760Z,64.72
2022-09-23T10:01:19.921Z,65.53
2022-09-23T10:02:19.997Z,64.79
2022-09-23T10:03:20.163Z,61.87
2022-09-23T10:04:20.278Z,62.81
2022-09-23T10:05:20.373Z,62.85
2022-09-23T10:06:20.510Z,62.65
2022-09-23T10:07:20.631Z,62.55
2022-09-23T10:08:20.773Z,62.85
2022-09-23T10:09:20.835Z,62.55
2022-09-23T10:10:32.421Z,62.24
2022-09-23T10:11:22.125Z,62.68
2022-09-23T10:12:21.260Z,62.68
2022-09-23T10:13:21.367Z,62.71
2022-09-23T10:14:21.528Z,62.54
2022-09-23T10:15:21.617Z,63.87
2022-09-23T10:16:21.824Z,64.28
2022-09-23T10:17:21.866Z,64.65
2022-09-23T10:18:22.025Z,65.86
2022-09-23T10:19:22.177Z,66.06
2022-09-23T10:20:22.295Z,64.35
2022-09-23T10:21:27.583Z,65.09
2022-09-23T10:22:23.540Z,64.65
2022-09-23T10:23:22.648Z,64.75
2022-09-23T10:24:22.751Z,64.52
2022-09-23T10:25:22.856Z,64.15
2022-09-23T10:26:23.007Z,64.72
2022-09-23T10:27:23.129Z,65.09
2022-09-23T10:28:23.243Z,63.62
2022-09-23T10:29:23.359Z,64.02
2022-09-23T10:30:23.510Z,63.42
2022-09-23T10:31:23.618Z,63.39
2022-09-23T10:32:23.738Z,64.19
2022-09-23T10:33:23.841Z,64.62
2022-09-23T10:34:23.980Z,64.52
2022-09-23T10:35:24.097Z,64.69
2022-09-23T10:36:24.211Z,64.79
2022-09-23T10:37:24.343Z,64.79
2022-09-23T10:38:24.441Z,63.89
2022-09-23T10:39:24.561Z,64.46
2022-09-23T10:40:24.705Z,65.13
2022-09-23T10:41:24.804Z,62.92
2022-09-23T10:42:24.924Z,62.52
2022-09-23T10:43:25.023Z,63.42
2022-09-23T10:44:25.133Z,62.24
2022-09-23T10:45:25.305Z,63.53
2022-09-23T10:46:25.466Z,64.33
2022-09-23T10:47:25.520Z,63.32
2022-09-23T10:48:25.651Z,64.26
2022-09-23T10:49:25.735Z,63.82
2022-09-23T10:50:25.908Z,63.02
2022-09-23T10:51:26.376Z,61.91
2022-09-23T10:52:26.116Z,62.22
2022-09-23T10:53:26.229Z,62.19
2022-09-23T10:54:26.390Z,62.36
2022-09-23T10:55:26.607Z,61.72
2022-09-23T10:56:26.620Z,61.43
2022-09-23T10:57:26.732Z,60.72
2022-09-23T10:58:26.881Z,60.96
2022-09-23T10:59:27.033Z,60.45
2022-09-23T11:00:27.195Z,60.08
2022-09-23T11:01:27.360Z,60.41
2022-09-23T11:02:27.401Z,60.81
2022-09-23T11:03:27.503Z,60.71
2022-09-23T11:04:27.698Z,61.58
2022-09-23T11:05:27.755Z,61.88
2022-09-23T11:06:27.923Z,60.55
2022-09-23T11:07:28.020Z,60.32
2022-09-23T11:08:28.138Z,59.42
2022-09-23T11:09:28.247Z,58.94
2022-09-23T11:10:45.389Z,59.42
2022-09-23T11:11:29.539Z,59.59
2022-09-23T11:12:28.708Z,59.89
2022-09-23T11:13:28.789Z,59.86
2022-09-23T11:14:28.967Z,57.73
2022-09-23T11:15:29.076Z,57.03
2022-09-23T11:16:29.258Z,57.00
2022-09-23T11:17:29.289Z,56.24
2022-09-23T11:18:29.461Z,55.12
2022-09-23T11:19:30.099Z,55.29
2022-09-23T11:20:29.672Z,55.35
2022-09-23T11:21:29.798Z,55.55
2022-09-23T11:22:29.914Z,55.05
2022-09-23T11:23:30.025Z,54.99
2022-09-23T11:24:30.154Z,53.37
2022-09-23T11:25:30.295Z,53.34
2022-09-23T11:26:33.105Z,52.89
2022-09-23T11:27:30.506Z,51.75
2022-09-23T11:28:30.626Z,51.32
2022-09-23T11:29:30.736Z,49.80
2022-09-23T11:30:30.942Z,48.71
2022-09-23T11:31:30.981Z,48.41
2022-09-23T11:32:31.067Z,49.48
2022-09-23T11:33:31.196Z,49.29
2022-09-23T11:34:31.278Z,47.40
2022-09-23T11:35:31.427Z,46.88
2022-09-23T11:36:31.588Z,46.08
2022-09-23T11:37:31.689Z,46.60
2022-09-23T11:38:31.817Z,47.27
2022-09-23T11:39:31.929Z,49.06
2022-09-23T11:40:32.148Z,48.41
2022-09-23T11:41:32.202Z,49.43
2022-09-23T11:42:32.287Z,50.45
2022-09-23T11:43:32.455Z,50.65
2022-09-23T11:44:32.530Z,51.22
2022-09-23T11:45:32.752Z,53.49
2022-09-23T11:46:32.792Z,53.59
2022-09-23T11:47:36.480Z,53.92
2022-09-23T11:48:34.062Z,54.85
2022-09-23T11:49:33.203Z,55.94
2022-09-23T11:50:33.309Z,55.40
2022-09-23T11:51:33.473Z,55.95
2022-09-23T11:52:33.562Z,56.52
2022-09-23T11:53:33.736Z,56.07
2022-09-23T11:54:33.824Z,55.57
2022-09-23T11:55:33.974Z,55.37
2022-09-23T11:56:36.283Z,55.98
2022-09-23T11:57:45.549Z,55.67
2022-09-23T11:58:35.391Z,54.57
2022-09-23T11:59:40.276Z,54.20
2022-09-23T12:00:35.580Z,54.97
2022-09-23T12:01:37.976Z,54.10
2022-09-23T12:02:34.907Z,55.32
2022-09-23T12:03:43.847Z,55.90
2022-09-23T12:04:37.428Z,55.13
2022-09-23T12:05:35.332Z,56.02
2022-09-23T12:06:35.265Z,55.40
2022-09-23T12:07:35.387Z,55.60
2022-09-23T12:08:35.481Z,54.70
2022-09-23T12:09:57.405Z,54.65
2022-09-23T12:10:36.757Z,55.75
2022-09-23T12:11:35.907Z,56.18
2022-09-23T12:12:36.029Z,56.78
2022-09-23T12:13:36.166Z,56.58
2022-09-23T12:14:36.288Z,56.88
2022-09-23T12:15:36.389Z,56.98
2022-09-23T12:16:36.605Z,56.51
2022-09-23T12:17:36.617Z,57.59
2022-09-23T12:18:36.724Z,57.59
2022-09-23T12:19:36.889Z,57.08
2022-09-23T12:20:36.969Z,56.18
2022-09-23T12:21:50.219Z,56.48
2022-09-23T12:22:38.244Z,56.35
2022-09-23T12:23:37.390Z,56.52
2022-09-23T12:24:37.492Z,55.50
2022-09-23T12:25:37.609Z,56.50
2022-09-23T12:26:37.711Z,56.48
2022-09-23T12:27:37.871Z,55.27
2022-09-23T12:28:37.992Z,54.85
2022-09-23T12:29:38.120Z,54.87
2022-09-23T12:30:38.255Z,55.90
2022-09-23T12:31:41.147Z,55.37
2022-09-23T12:32:38.421Z,54.60
2022-09-23T12:33:38.559Z,55.37
2022-09-23T12:34:38.899Z,54.37
2022-09-23T12:35:38.832Z,54.74
2022-09-23T12:36:38.932Z,53.24
2022-09-23T12:37:39.105Z,54.27
2022-09-23T12:38:39.197Z,54.87
2022-09-23T12:39:39.300Z,54.47
2022-09-23T12:40:39.401Z,54.27
2022-09-23T12:41:39.566Z,54.47
2022-09-23T12:42:39.683Z,54.14
2022-09-23T12:43:39.794Z,54.94
2022-09-23T12:44:39.893Z,53.37
2022-09-23T12:45:40.121Z,54.17
2022-09-23T12:46:40.143Z,54.70
2022-09-23T12:47:40.274Z,54.20
2022-09-23T12:48:40.355Z,53.59
2022-09-23T12:49:40.504Z,53.09
2022-09-23T12:50:40.649Z,54.00
2022-09-23T12:51:40.798Z,53.69
2022-09-23T12:52:40.904Z,54.07
2022-09-23T12:53:41.046Z,53.77